Time;durP1;ratioP1;P1;durP2;ratioP2;P2;SDS_P1;SDS_P2;PMS_P1;PMS_P2;Temp;Humidity;BMP_temperature;BMP_pressure;BME280_temperature;BME280_humidity;BME280_pressure;Samples;Min_cycle;Max_cycle;Signal;HPM_P1;HPM_P2
2021/10/30 00:01:14;;;;;;;40.28;28.33;;;;;;;7.77;100.00;100388.06;5024649;28;20032;-50
2021/10/30 00:03:40;;;;;;;37.05;28.88;;;;;;;7.62;100.00;100387.56;5025201;28;20041;-55
2021/10/30 00:06:05;;;;;;;38.55;25.92;;;;;;;7.94;100.00;100401.34;5024664;28;20031;-54
2021/10/30 00:08:31;;;;;;;40.60;27.25;;;;;;;7.96;100.00;100401.41;5024781;28;20025;-51
2021/10/30 00:10:58;;;;;;;39.45;28.02;;;;;;;7.98;100.00;100407.41;5024718;28;20336;-48
2021/10/30 00:13:24;;;;;;;36.20;26.35;;;;;;;7.66;100.00;100402.13;5024769;28;20049;-50
2021/10/30 00:15:49;;;;;;;37.97;26.95;;;;;;;7.78;100.00;100399.13;5024795;28;20033;-54
2021/10/30 00:18:15;;;;;;;41.03;28.70;;;;;;;8.08;100.00;100397.53;5026315;28;20041;-48
2021/10/30 00:20:41;;;;;;;35.50;26.75;;;;;;;7.60;100.00;100405.34;5026398;28;20025;-53
2021/10/30 00:23:07;;;;;;;36.78;27.95;;;;;;;7.39;100.00;100418.25;5025610;28;20040;-51
2021/10/30 00:25:32;;;;;;;38.45;27.38;;;;;;;6.96;100.00;100415.88;5024714;28;20048;-52
2021/10/30 00:27:58;;;;;;;34.65;25.60;;;;;;;7.29;100.00;100408.56;5024750;28;20040;-51
2021/10/30 00:30:24;;;;;;;40.03;27.58;;;;;;;6.82;100.00;100415.38;5024521;28;20041;-52
2021/10/30 00:32:49;;;;;;;35.92;26.92;;;;;;;7.08;100.00;100421.41;5024707;28;20397;-53
2021/10/30 00:35:15;;;;;;;38.30;27.67;;;;;;;6.91;100.00;100431.81;5024088;28;20038;-56
2021/10/30 00:37:40;;;;;;;40.40;28.88;;;;;;;6.40;100.00;100422.31;5022950;28;20033;-54
2021/10/30 00:40:07;;;;;;;39.40;27.73;;;;;;;6.47;100.00;100428.47;5024846;28;20037;-53
2021/10/30 00:42:33;;;;;;;38.08;28.05;;;;;;;6.42;100.00;100427.44;5024413;28;20188;-57
2021/10/30 00:44:59;;;;;;;40.42;29.98;;;;;;;6.37;100.00;100420.50;5023988;28;20045;-48
2021/10/30 00:47:24;;;;;;;38.60;29.17;;;;;;;6.46;100.00;100430.16;5024162;28;20044;-50
2021/10/30 00:49:50;;;;;;;41.05;28.73;;;;;;;6.98;100.00;100418.47;5024776;28;20029;-51
2021/10/30 00:52:16;;;;;;;38.00;27.25;;;;;;;6.78;100.00;100417.75;5024607;28;20041;-54
2021/10/30 00:54:45;;;;;;;38.00;26.38;;;;;;;6.79;100.00;100422.91;5026034;28;20044;-52
2021/10/30 00:57:11;;;;;;;36.97;25.50;;;;;;;6.46;100.00;100419.97;5028115;28;20041;-48
2021/10/30 00:59:38;;;;;;;37.13;27.77;;;;;;;6.39;100.00;100415.50;5028477;28;20029;-53
2021/10/30 01:02:04;;;;;;;39.28;27.08;;;;;;;6.35;100.00;100411.09;5026822;28;20124;-55
2021/10/30 01:04:30;;;;;;;39.95;28.83;;;;;;;6.28;100.00;100409.09;5027829;28;20025;-51
2021/10/30 01:06:58;;;;;;;39.13;28.83;;;;;;;6.46;100.00;100403.84;5028011;28;20068;-53
2021/10/30 01:09:24;;;;;;;40.42;28.45;;;;;;;6.26;100.00;100410.75;5028229;28;20038;-50
2021/10/30 01:11:51;;;;;;;42.30;27.35;;;;;;;6.31;100.00;100416.88;5027892;28;20068;-51
2021/10/30 01:14:21;;;;;;;42.10;30.17;;;;;;;6.33;100.00;100418.66;5027646;28;20034;-53
2021/10/30 01:17:07;;;;;;;42.78;28.98;;;;;;;6.06;100.00;100417.59;5027710;28;20068;-54
2021/10/30 01:19:34;;;;;;;35.70;28.05;;;;;;;5.91;100.00;100414.41;5027557;28;20044;-52
2021/10/30 01:22:00;;;;;;;44.65;29.83;;;;;;;5.92;100.00;100414.50;5028144;28;20496;-54
2021/10/30 01:24:27;;;;;;;42.28;28.02;;;;;;;6.66;100.00;100409.72;5027711;28;20030;-55
2021/10/30 01:26:52;;;;;;;40.17;28.30;;;;;;;6.95;100.00;100405.66;5027461;28;20057;-51
2021/10/30 01:29:19;;;;;;;38.55;27.27;;;;;;;6.70;100.00;100403.88;5027537;28;20064;-54
2021/10/30 01:31:44;;;;;;;40.15;28.13;;;;;;;6.38;100.00;100401.91;5027445;28;20121;-51
2021/10/30 01:34:10;;;;;;;39.17;28.45;;;;;;;6.59;100.00;100411.13;5027359;28;20116;-50
2021/10/30 01:36:37;;;;;;;37.50;27.02;;;;;;;6.45;100.00;100407.22;5027733;28;20025;-55
2021/10/30 01:39:05;;;;;;;36.80;27.55;;;;;;;6.11;100.00;100403.41;5027246;28;20468;-50
2021/10/30 01:41:31;;;;;;;38.25;27.75;;;;;;;6.02;100.00;100397.94;5027279;28;20122;-53
2021/10/30 01:43:57;;;;;;;40.75;28.55;;;;;;;6.08;100.00;100398.19;5027221;28;20750;-53
2021/10/30 01:46:23;;;;;;;38.10;27.73;;;;;;;5.95;100.00;100396.81;5027259;28;20083;-49
2021/10/30 01:48:49;;;;;;;36.03;27.42;;;;;;;6.57;100.00;100394.97;5027328;28;20033;-53
2021/10/30 01:51:15;;;;;;;36.42;26.65;;;;;;;7.01;100.00;100398.22;5027267;28;20044;-56
2021/10/30 01:53:42;;;;;;;39.10;26.80;;;;;;;6.59;100.00;100389.09;5026847;28;20540;-53
2021/10/30 01:56:09;;;;;;;34.53;25.67;;;;;;;6.41;100.00;100398.59;5027120;28;20056;-52
2021/10/30 01:58:35;;;;;;;33.55;25.45;;;;;;;6.19;100.00;100386.75;5027314;28;20041;-51
2021/10/30 02:01:03;;;;;;;37.58;26.30;;;;;;;6.68;100.00;100387.72;5027361;28;20472;-49
2021/10/30 02:03:30;;;;;;;38.70;27.70;;;;;;;6.25;100.00;100388.66;5027101;28;20044;-49
2021/10/30 02:05:57;;;;;;;40.22;27.58;;;;;;;6.45;100.00;100391.94;5026152;28;20083;-54
2021/10/30 02:08:22;;;;;;;37.03;26.00;;;;;;;6.31;100.00;100383.81;5026738;28;20044;-49
2021/10/30 02:10:48;;;;;;;33.25;25.23;;;;;;;6.39;100.00;100392.59;5026681;28;20045;-54
2021/10/30 02:13:14;;;;;;;37.47;26.77;;;;;;;6.33;100.00;100392.34;5026465;28;20045;-55
2021/10/30 02:15:40;;;;;;;38.45;26.85;;;;;;;6.40;100.00;100385.84;5026657;28;20041;-49
2021/10/30 02:18:06;;;;;;;33.90;26.17;;;;;;;6.39;100.00;100392.59;5028121;28;20123;-54
2021/10/30 02:20:32;;;;;;;35.55;25.27;;;;;;;6.32;100.00;100390.63;5022920;28;20032;-48
2021/10/30 02:22:58;;;;;;;33.83;25.30;;;;;;;6.27;100.00;100389.59;5027013;28;20124;-50
2021/10/30 02:25:23;;;;;;;36.40;26.63;;;;;;;5.98;100.00;100391.88;5026048;28;20516;-50
2021/10/30 02:27:50;;;;;;;39.15;26.65;;;;;;;5.76;100.00;100391.78;5026377;28;20037;-51
2021/10/30 02:30:16;;;;;;;40.13;26.80;;;;;;;5.80;100.00;100381.81;5026280;28;20091;-51
2021/10/30 02:32:43;;;;;;;35.88;27.40;;;;;;;5.93;100.00;100377.25;5026209;28;20045;-54
2021/10/30 02:35:09;;;;;;;38.22;26.33;;;;;;;6.10;100.00;100374.56;5026292;28;20048;-53
2021/10/30 02:37:35;;;;;;;38.83;25.90;;;;;;;6.71;100.00;100382.75;5026202;28;20045;-52
2021/10/30 02:40:01;;;;;;;33.17;25.85;;;;;;;6.63;100.00;100377.38;5026247;28;20128;-51
2021/10/30 02:42:26;;;;;;;36.28;25.63;;;;;;;6.02;100.00;100382.69;5026403;28;20033;-48
2021/10/30 02:44:52;;;;;;;38.10;27.55;;;;;;;5.75;100.00;100385.84;5025912;28;20068;-50
2021/10/30 02:47:18;;;;;;;33.67;26.17;;;;;;;5.80;100.00;100391.13;5026076;28;20110;-49
2021/10/30 02:49:43;;;;;;;39.35;27.08;;;;;;;5.70;100.00;100399.19;5025980;28;20045;-55
2021/10/30 02:52:09;;;;;;;36.55;24.65;;;;;;;6.05;100.00;100396.38;5025899;28;20039;-48
2021/10/30 02:54:35;;;;;;;32.92;24.52;;;;;;;5.96;100.00;100390.97;5026151;28;20037;-53
2021/10/30 02:57:00;;;;;;;34.03;24.90;;;;;;;6.04;100.00;100397.19;5025929;28;20437;-52
2021/10/30 02:59:26;;;;;;;38.80;26.02;;;;;;;6.83;100.00;100394.22;5025807;28;20056;-52
2021/10/30 03:01:52;;;;;;;34.97;25.67;;;;;;;6.11;100.00;100393.22;5025995;28;20033;-52
2021/10/30 03:04:17;;;;;;;33.20;24.05;;;;;;;5.94;100.00;100391.69;5025596;28;20041;-54
2021/10/30 03:06:43;;;;;;;34.65;25.05;;;;;;;6.05;100.00;100398.06;5025713;28;20437;-55
2021/10/30 03:09:09;;;;;;;30.20;23.77;;;;;;;6.40;100.00;100396.00;5025700;28;20025;-50
2021/10/30 03:11:35;;;;;;;36.97;24.73;;;;;;;7.18;100.00;100394.59;5025999;28;20083;-54
2021/10/30 03:14:01;;;;;;;34.28;24.10;;;;;;;6.59;100.00;100406.06;5025610;28;20056;-51
2021/10/30 03:16:27;;;;;;;36.63;25.30;;;;;;;6.32;100.00;100398.25;5025802;28;20390;-49
2021/10/30 03:18:53;;;;;;;33.63;24.98;;;;;;;5.98;100.00;100393.56;5024674;28;20044;-53
2021/10/30 03:21:19;;;;;;;36.75;26.10;;;;;;;6.29;100.00;100400.69;5025682;28;20116;-48
2021/10/30 03:23:44;;;;;;;38.53;25.50;;;;;;;6.17;100.00;100392.59;5025393;28;20860;-52
2021/10/30 03:26:10;;;;;;;32.95;24.95;;;;;;;6.50;100.00;100395.53;5025560;28;20573;-50
2021/10/30 03:28:35;;;;;;;35.75;25.30;;;;;;;6.66;100.00;100396.97;5025909;28;20040;-54
2021/10/30 03:31:01;;;;;;;33.88;26.15;;;;;;;6.58;100.00;100395.00;5025281;28;20505;-48
2021/10/30 03:33:27;;;;;;;35.47;24.52;;;;;;;6.35;100.00;100394.16;5025221;28;20195;-51
2021/10/30 03:35:52;;;;;;;36.17;23.65;;;;;;;6.59;100.00;100389.09;5025079;28;20067;-53
2021/10/30 03:38:18;;;;;;;36.13;24.10;;;;;;;6.69;100.00;100395.41;5025177;28;20033;-55
2021/10/30 03:40:44;;;;;;;31.17;23.58;;;;;;;6.72;100.00;100399.75;5025236;28;20037;-49
2021/10/30 03:43:10;;;;;;;38.30;25.58;;;;;;;6.28;100.00;100399.81;5025317;28;20149;-54
2021/10/30 03:45:36;;;;;;;39.83;25.83;;;;;;;5.72;100.00;100400.97;5025535;28;20120;-51
2021/10/30 03:48:07;;;;;;;33.67;26.35;;;;;;;5.84;100.00;100400.59;5025096;28;20040;-54
2021/10/30 03:50:35;;;;;;;36.10;26.90;;;;;;;5.91;100.00;100400.03;5025024;28;20049;-49
2021/10/30 03:53:01;;;;;;;36.30;24.83;;;;;;;6.10;100.00;100394.91;5025178;28;20033;-52
2021/10/30 03:55:26;;;;;;;36.63;25.27;;;;;;;5.96;100.00;100400.22;5025015;28;20490;-51
2021/10/30 03:57:52;;;;;;;35.00;24.67;;;;;;;5.91;100.00;100391.53;5025052;28;20034;-49
2021/10/30 04:00:18;;;;;;;38.88;25.55;;;;;;;5.91;100.00;100392.41;5024993;28;20406;-50
2021/10/30 04:02:44;;;;;;;36.65;24.70;;;;;;;6.00;100.00;100389.38;5024610;28;20029;-55
2021/10/30 04:05:10;;;;;;;37.88;25.23;;;;;;;5.73;100.00;100390.00;5024775;28;20034;-47
2021/10/30 04:07:35;;;;;;;35.83;24.00;;;;;;;5.81;100.00;100396.25;5025417;28;20033;-52
2021/10/30 04:10:01;;;;;;;37.60;26.13;;;;;;;5.62;100.00;100389.56;5024969;28;20037;-51
2021/10/30 04:12:27;;;;;;;37.17;26.63;;;;;;;5.94;100.00;100386.63;5024979;28;20038;-53
2021/10/30 04:14:52;;;;;;;34.95;25.55;;;;;;;5.67;100.00;100391.44;5024666;28;20040;-54
2021/10/30 04:17:18;;;;;;;33.78;25.15;;;;;;;6.14;100.00;100385.69;5025026;28;20036;-50
2021/10/30 04:19:43;;;;;;;34.45;25.13;;;;;;;5.94;100.00;100379.00;5025001;28;20049;-49
2021/10/30 04:22:09;;;;;;;37.75;25.13;;;;;;;5.62;100.00;100381.06;5024773;28;20483;-50
2021/10/30 04:24:35;;;;;;;39.15;24.45;;;;;;;5.52;100.00;100386.59;5025683;28;20041;-51
2021/10/30 04:27:01;;;;;;;34.67;24.60;;;;;;;6.17;100.00;100383.28;5026520;28;20493;-54
2021/10/30 04:29:27;;;;;;;35.13;25.15;;;;;;;6.06;100.00;100379.47;5028340;28;20397;-50
2021/10/30 04:31:55;;;;;;;35.70;25.48;;;;;;;5.80;100.00;100383.50;5028895;28;20045;-52
2021/10/30 04:34:23;;;;;;;34.05;24.80;;;;;;;5.47;100.00;100377.94;5028860;28;20114;-51
2021/10/30 04:36:50;;;;;;;35.45;26.00;;;;;;;5.21;100.00;100374.28;5028635;28;20033;-55
2021/10/30 04:39:18;;;;;;;34.17;24.30;;;;;;;5.48;100.00;100377.97;5028722;28;20137;-54
2021/10/30 04:41:44;;;;;;;37.60;26.48;;;;;;;5.33;100.00;100378.22;5028665;28;20413;-46
2021/10/30 04:44:10;;;;;;;37.17;26.35;;;;;;;5.50;100.00;100372.94;5028380;28;20033;-49
2021/10/30 04:46:37;;;;;;;37.22;26.02;;;;;;;5.36;100.00;100370.75;5028512;28;20026;-54
2021/10/30 04:49:02;;;;;;;30.70;23.35;;;;;;;5.22;100.00;100361.69;5028366;28;20379;-49
2021/10/30 04:51:28;;;;;;;33.17;25.38;;;;;;;5.26;100.00;100371.13;5028018;28;20044;-55
2021/10/30 04:53:54;;;;;;;34.60;25.23;;;;;;;5.56;100.00;100361.38;5027989;28;20033;-49
2021/10/30 04:56:19;;;;;;;32.80;24.20;;;;;;;5.28;100.00;100369.53;5028066;28;20063;-54
2021/10/30 04:58:45;;;;;;;30.63;23.90;;;;;;;5.22;100.00;100369.31;5028332;28;20030;-53
2021/10/30 05:01:16;;;;;;;35.45;25.10;;;;;;;5.16;100.00;100363.94;5012164;28;20030;-53
2021/10/30 05:03:42;;;;;;;31.30;24.58;;;;;;;5.11;100.00;100370.50;5007987;28;20037;-48
2021/10/30 05:06:09;;;;;;;34.00;25.02;;;;;;;5.16;100.00;100360.56;5008438;28;20125;-50
2021/10/30 05:08:35;;;;;;;32.42;24.00;;;;;;;5.10;100.00;100364.56;5008472;28;20038;-50
2021/10/30 05:11:01;;;;;;;30.95;24.70;;;;;;;5.02;100.00;100355.75;5007902;28;20034;-52
2021/10/30 05:13:26;;;;;;;34.20;24.50;;;;;;;5.16;100.00;100355.47;5007825;28;20397;-54
2021/10/30 05:15:52;;;;;;;37.78;25.98;;;;;;;5.01;100.00;100358.25;5007802;28;20073;-47
2021/10/30 05:18:18;;;;;;;37.88;26.35;;;;;;;5.00;100.00;100349.75;5007677;28;20030;-47
2021/10/30 05:20:43;;;;;;;35.63;27.15;;;;;;;4.84;100.00;100349.91;5008072;28;20034;-52
2021/10/30 05:23:09;;;;;;;40.88;27.25;;;;;;;4.77;100.00;100348.78;5008799;28;20026;-50
2021/10/30 05:25:35;;;;;;;40.15;27.77;;;;;;;4.73;100.00;100341.84;5007880;28;20573;-53
2021/10/30 05:28:00;;;;;;;37.83;26.80;;;;;;;4.80;100.00;100345.50;5008164;28;20121;-49
2021/10/30 05:30:26;;;;;;;35.13;27.88;;;;;;;4.97;100.00;100341.16;5007572;28;20060;-48
2021/10/30 05:32:52;;;;;;;37.60;25.77;;;;;;;4.91;100.00;100338.34;5007963;28;20033;-51
2021/10/30 05:35:17;;;;;;;36.47;26.17;;;;;;;4.93;100.00;100339.28;5007644;28;20117;-52
2021/10/30 05:37:43;;;;;;;36.00;26.38;;;;;;;5.05;100.00;100347.41;5007773;28;20461;-51
2021/10/30 05:40:10;;;;;;;33.53;24.20;;;;;;;5.09;100.00;100350.16;5006095;28;20037;-50
2021/10/30 05:42:39;;;;;;;35.70;25.50;;;;;;;4.99;100.00;100344.59;5007294;28;20117;-52
2021/10/30 05:45:07;;;;;;;37.80;26.45;;;;;;;4.75;100.00;100352.91;5007295;28;20038;-51
2021/10/30 05:47:35;;;;;;;41.78;29.25;;;;;;;4.67;100.00;100344.13;5007478;28;20394;-50
2021/10/30 05:50:01;;;;;;;37.95;26.50;;;;;;;4.89;100.00;100340.81;5007331;28;20030;-49
2021/10/30 05:52:27;;;;;;;38.85;26.38;;;;;;;4.91;100.00;100338.34;5007497;28;20064;-49
2021/10/30 05:54:52;;;;;;;38.25;27.30;;;;;;;4.71;100.00;100338.34;5007280;28;20030;-52
2021/10/30 05:57:18;;;;;;;37.25;27.95;;;;;;;4.96;100.00;100337.75;5007260;28;20030;-54
2021/10/30 05:59:43;;;;;;;41.53;27.38;;;;;;;4.76;100.00;100328.41;5007332;28;20092;-48
2021/10/30 06:02:12;;;;;;;39.38;27.17;;;;;;;4.73;100.00;100326.63;5007398;28;20034;-49
2021/10/30 06:04:40;;;;;;;40.53;27.58;;;;;;;4.70;100.00;100335.75;5007313;28;20057;-48
2021/10/30 06:07:06;;;;;;;39.05;28.33;;;;;;;4.62;100.00;100332.88;5007589;28;20080;-50
2021/10/30 06:09:32;;;;;;;41.28;28.63;;;;;;;4.67;100.00;100328.91;5007130;28;20117;-50
2021/10/30 06:11:59;;;;;;;39.03;28.63;;;;;;;4.65;100.00;100329.63;5007114;28;20815;-52
2021/10/30 06:14:25;;;;;;;37.58;27.65;;;;;;;4.68;100.00;100332.28;5007517;28;20032;-50
2021/10/30 06:16:51;;;;;;;39.40;29.02;;;;;;;4.64;100.00;100327.88;5007276;28;20045;-52
2021/10/30 06:19:16;;;;;;;38.90;27.67;;;;;;;4.82;100.00;100336.28;5007238;28;20030;-53
2021/10/30 06:21:42;;;;;;;39.25;28.52;;;;;;;4.82;100.00;100329.53;5007162;28;20655;-52
2021/10/30 06:24:08;;;;;;;38.92;28.40;;;;;;;4.69;100.00;100337.44;5007078;28;20371;-53
2021/10/30 06:26:34;;;;;;;37.47;26.40;;;;;;;4.82;100.00;100331.22;5006545;28;20167;-50
2021/10/30 06:29:07;;;;;;;40.00;27.00;;;;;;;4.90;100.00;100326.44;5006822;28;20048;-53
2021/10/30 06:31:33;;;;;;;37.90;27.60;;;;;;;5.14;100.00;100340.19;5006951;28;20506;-51
2021/10/30 06:33:59;;;;;;;41.22;28.35;;;;;;;4.84;100.00;100338.06;5006699;28;20034;-51
2021/10/30 06:36:24;;;;;;;36.60;27.98;;;;;;;4.82;100.00;100337.16;5006833;28;20529;-52
2021/10/30 06:38:50;;;;;;;37.97;27.58;;;;;;;4.76;100.00;100338.53;5006637;28;20037;-50
2021/10/30 06:41:16;;;;;;;33.67;25.88;;;;;;;5.28;100.00;100340.75;5006707;28;20026;-56
2021/10/30 06:43:42;;;;;;;35.58;25.83;;;;;;;5.19;100.00;100340.38;5006639;28;20041;-54
2021/10/30 06:46:08;;;;;;;38.03;26.08;;;;;;;5.57;100.00;100339.41;5006898;28;20026;-54
2021/10/30 06:48:34;;;;;;;34.58;26.70;;;;;;;5.38;100.00;100347.94;5006718;28;20088;-47
2021/10/30 06:51:00;;;;;;;33.83;25.35;;;;;;;6.03;100.00;100351.38;5006470;28;20046;-51
2021/10/30 06:53:26;;;;;;;34.53;24.73;;;;;;;5.95;100.00;100352.75;5006313;28;20041;-54
2021/10/30 06:55:54;;;;;;;32.47;23.63;;;;;;;6.29;100.00;100349.84;5006189;28;20034;-49
2021/10/30 06:58:21;;;;;;;35.72;24.38;;;;;;;6.06;100.00;100356.59;5007173;28;20205;-48
2021/10/30 07:00:47;;;;;;;37.83;24.98;;;;;;;6.31;100.00;100353.28;5006285;28;20030;-53
2021/10/30 07:03:13;;;;;;;29.58;24.52;;;;;;;6.03;100.00;100349.72;5006411;28;20048;-53
2021/10/30 07:05:40;;;;;;;34.55;24.20;;;;;;;6.03;100.00;100347.16;5007408;28;20041;-48
2021/10/30 07:08:06;;;;;;;38.20;25.08;;;;;;;5.80;100.00;100342.84;5005125;28;20678;-53
2021/10/30 07:10:32;;;;;;;33.40;23.95;;;;;;;5.80;100.00;100343.72;5006283;28;20045;-53
2021/10/30 07:12:57;;;;;;;35.15;25.20;;;;;;;5.74;100.00;100342.63;5006172;28;20038;-54
2021/10/30 07:15:23;;;;;;;32.78;24.58;;;;;;;5.80;100.00;100338.63;5004245;28;20037;-53
2021/10/30 07:17:49;;;;;;;36.05;24.67;;;;;;;5.87;100.00;100340.59;5005917;28;20026;-51
2021/10/30 07:20:14;;;;;;;32.50;23.63;;;;;;;5.95;100.00;100342.59;5006596;28;20417;-55
2021/10/30 07:22:45;;;;;;;30.92;23.67;;;;;;;6.08;100.00;100339.72;5007307;28;20034;-50
2021/10/30 07:25:12;;;;;;;35.17;24.60;;;;;;;6.00;100.00;100334.34;5006490;28;20048;-49
2021/10/30 07:27:48;;;;;;;34.35;23.83;;;;;;;6.16;100.00;100338.34;5006727;28;20034;-48
2021/10/30 07:30:15;;;;;;;32.47;24.35;;;;;;;6.55;100.00;100332.97;5005618;28;20038;-49
2021/10/30 07:32:41;;;;;;;32.72;23.75;;;;;;;7.14;100.00;100345.25;5005629;28;20041;-47
2021/10/30 07:35:08;;;;;;;33.85;23.75;;;;;;;6.88;100.00;100334.16;5005819;28;20041;-47
2021/10/30 07:37:34;;;;;;;31.23;23.35;;;;;;;7.26;100.00;100337.16;5005472;28;20038;-53
2021/10/30 07:40:00;;;;;;;31.10;22.70;;;;;;;7.27;100.00;100340.56;5005977;28;20068;-48
2021/10/30 07:42:27;;;;;;;31.08;22.33;;;;;;;7.82;100.00;100343.22;5006067;28;20038;-55
2021/10/30 07:44:54;;;;;;;30.90;23.17;;;;;;;7.90;100.00;100349.41;5006009;28;20112;-49
2021/10/30 07:47:20;;;;;;;30.00;23.38;;;;;;;8.08;100.00;100343.13;5005912;28;20484;-49
2021/10/30 07:49:45;;;;;;;31.30;22.80;;;;;;;8.02;100.00;100342.94;5005550;28;20089;-48
2021/10/30 07:52:12;;;;;;;33.05;22.45;;;;;;;8.00;100.00;100342.03;5005386;28;20038;-55
2021/10/30 07:54:38;;;;;;;30.88;22.92;;;;;;;8.85;100.00;100341.97;5005728;28;20034;-52
2021/10/30 07:57:05;;;;;;;29.15;21.15;;;;;;;9.63;98.69;100340.53;5005656;28;20038;-49
2021/10/30 07:59:31;;;;;;;29.30;22.42;;;;;;;8.58;100.00;100342.06;5005497;28;20064;-50
2021/10/30 08:01:58;;;;;;;31.45;21.98;;;;;;;8.15;100.00;100335.72;5005490;28;20397;-48
2021/10/30 08:04:24;;;;;;;27.00;22.38;;;;;;;8.53;100.00;100328.31;5005000;28;20083;-51
2021/10/30 08:06:49;;;;;;;32.17;22.27;;;;;;;8.11;100.00;100322.81;5005241;28;20030;-50
2021/10/30 08:09:15;;;;;;;27.10;21.10;;;;;;;8.68;100.00;100322.75;5005361;28;20886;-52
2021/10/30 08:11:40;;;;;;;27.25;21.42;;;;;;;9.03;100.00;100325.41;5005246;28;20049;-52
2021/10/30 08:14:06;;;;;;;30.60;22.50;;;;;;;8.70;100.00;100321.13;5005521;28;20121;-49
2021/10/30 08:16:32;;;;;;;30.42;21.70;;;;;;;9.05;100.00;100316.09;5005266;28;20099;-48
2021/10/30 08:18:58;;;;;;;29.75;21.90;;;;;;;9.36;98.56;100308.38;5005137;28;20104;-55
2021/10/30 08:21:24;;;;;;;24.73;21.27;;;;;;;9.11;100.00;100311.16;5005130;28;20052;-47
2021/10/30 08:23:50;;;;;;;30.75;22.30;;;;;;;9.08;100.00;100305.97;5004977;28;20550;-53
2021/10/30 08:26:16;;;;;;;27.98;21.13;;;;;;;8.71;100.00;100299.88;5005141;28;20105;-51
2021/10/30 08:28:54;;;;;;;26.23;21.65;;;;;;;8.79;100.00;100290.75;5005169;28;20083;-48
2021/10/30 08:31:20;;;;;;;29.35;22.08;;;;;;;8.94;100.00;100295.38;5005404;28;20033;-56
2021/10/30 08:33:46;;;;;;;29.98;20.42;;;;;;;9.52;99.01;100284.06;5005615;28;20494;-49
2021/10/30 08:36:12;;;;;;;28.25;20.70;;;;;;;9.34;99.33;100288.72;5005981;28;20483;-49
2021/10/30 08:38:37;;;;;;;25.58;21.30;;;;;;;9.58;96.91;100293.56;5025386;28;20036;-55
2021/10/30 08:41:06;;;;;;;27.10;20.98;;;;;;;9.06;100.00;100295.72;5018934;28;20038;-56
2021/10/30 08:43:32;;;;;;;25.58;20.50;;;;;;;9.19;100.00;100286.63;5006458;28;20053;-47
2021/10/30 08:46:00;;;;;;;24.25;19.90;;;;;;;9.22;98.86;100279.06;5016533;28;20095;-55
2021/10/30 08:48:30;;;;;;;26.42;20.33;;;;;;;9.63;98.43;100274.94;5013349;28;20041;-48
2021/10/30 08:50:57;;;;;;;27.60;20.42;;;;;;;9.88;97.02;100268.66;5013037;28;20518;-52
2021/10/30 08:53:24;;;;;;;26.27;20.73;;;;;;;10.04;95.82;100269.00;5012422;28;20060;-51
2021/10/30 08:55:51;;;;;;;27.00;20.80;;;;;;;9.75;95.27;100258.97;5010080;28;20052;-54
2021/10/30 08:58:18;;;;;;;27.67;21.70;;;;;;;9.62;96.98;100262.13;5004741;28;20033;-49
2021/10/30 09:00:53;;;;;;;25.13;20.08;;;;;;;9.90;95.48;100261.88;5004604;28;20029;-48
2021/10/30 09:03:21;;;;;;;25.05;19.42;;;;;;;9.82;97.67;100257.44;5004752;28;20139;-53
2021/10/30 09:05:59;;;;;;;25.00;20.23;;;;;;;10.24;95.47;100248.94;5004296;28;20034;-53
2021/10/30 09:08:28;;;;;;;23.80;19.15;;;;;;;10.75;89.65;100254.19;5004569;28;20045;-53
2021/10/30 09:11:01;;;;;;;22.63;18.25;;;;;;;11.04;89.48;100246.13;5004422;28;20037;-50
2021/10/30 09:13:30;;;;;;;25.42;18.52;;;;;;;10.99;88.46;100238.38;5006763;28;20146;-50
2021/10/30 09:15:58;;;;;;;24.35;18.75;;;;;;;11.46;86.29;100241.72;5006303;28;20069;-49
2021/10/30 09:18:31;;;;;;;26.45;19.08;;;;;;;10.78;88.10;100235.47;5007744;28;20531;-47
2021/10/30 09:21:13;;;;;;;23.83;18.73;;;;;;;10.73;88.44;100219.16;5011179;28;20037;-54
2021/10/30 09:23:44;;;;;;;25.30;19.08;;;;;;;11.12;88.65;100226.63;5014541;28;20523;-50
2021/10/30 09:26:17;;;;;;;24.85;18.52;;;;;;;12.24;83.31;100222.22;5018316;28;20095;-50
2021/10/30 09:28:49;;;;;;;23.02;18.02;;;;;;;12.28;81.69;100223.09;5018269;28;20064;-50
2021/10/30 09:31:17;;;;;;;24.52;19.08;;;;;;;11.56;86.45;100221.31;5022667;28;20037;-53
2021/10/30 09:33:57;;;;;;;25.08;18.80;;;;;;;11.17;87.16;100217.31;5011978;28;20175;-50
2021/10/30 09:36:29;;;;;;;24.77;19.23;;;;;;;11.35;87.17;100212.47;5021792;28;20041;-53
2021/10/30 09:38:59;;;;;;;23.40;17.77;;;;;;;11.97;84.56;100215.06;5013017;28;20084;-56
2021/10/30 09:41:46;;;;;;;23.95;19.08;;;;;;;11.75;87.45;100213.03;5046248;28;20071;-53
2021/10/30 09:44:27;;;;;;;21.48;17.65;;;;;;;12.12;83.44;100218.66;5015567;28;20036;-48
2021/10/30 09:46:58;;;;;;;22.52;18.15;;;;;;;12.01;86.47;100209.97;5030734;28;20133;-53
2021/10/30 09:49:29;;;;;;;23.15;17.25;;;;;;;11.94;84.95;100204.75;5020545;28;20410;-48
2021/10/30 09:51:56;;;;;;;27.23;18.98;;;;;;;11.87;84.11;100197.81;5020610;28;20179;-50
2021/10/30 09:54:45;;;;;;;24.73;18.63;;;;;;;12.30;84.01;100203.47;5017345;28;20080;-54
2021/10/30 09:57:24;;;;;;;23.15;17.98;;;;;;;11.61;84.90;100197.47;5018313;28;20041;-47
2021/10/30 09:59:52;;;;;;;24.75;17.75;;;;;;;12.14;82.93;100191.28;5018000;28;20476;-51
2021/10/30 10:02:21;;;;;;;23.27;18.63;;;;;;;11.77;84.58;100188.25;5025247;28;20030;-57
2021/10/30 10:04:49;;;;;;;23.90;17.98;;;;;;;12.48;80.27;100187.41;5005734;28;20042;-55
2021/10/30 10:07:17;;;;;;;23.55;16.77;;;;;;;12.39;82.29;100184.72;5019566;28;20052;-51
2021/10/30 10:09:44;;;;;;;23.10;18.23;;;;;;;12.80;79.53;100182.50;5025244;28;20037;-51
2021/10/30 10:12:14;;;;;;;20.23;17.88;;;;;;;12.61;80.25;100188.34;5016118;28;20042;-47
2021/10/30 10:14:42;;;;;;;20.63;16.70;;;;;;;13.19;76.53;100184.53;5009630;28;20049;-51
2021/10/30 10:17:08;;;;;;;20.77;17.48;;;;;;;14.31;72.18;100185.09;5016894;28;20349;-56
2021/10/30 10:19:36;;;;;;;21.90;16.92;;;;;;;13.75;71.91;100175.47;5016176;28;20042;-52
2021/10/30 10:22:02;;;;;;;22.75;18.10;;;;;;;13.57;75.49;100167.66;5010319;28;20053;-55
2021/10/30 10:24:34;;;;;;;22.65;17.42;;;;;;;12.87;78.70;100155.19;5013874;28;20583;-53
2021/10/30 10:27:03;;;;;;;21.55;17.73;;;;;;;12.91;76.24;100147.50;5016238;28;20033;-50
2021/10/30 10:29:43;;;;;;;20.50;17.33;;;;;;;12.47;79.73;100142.00;5016508;28;20049;-48
2021/10/30 10:32:15;;;;;;;19.63;16.88;;;;;;;13.24;76.73;100139.19;5009920;28;20042;-57
2021/10/30 10:34:41;;;;;;;24.67;18.42;;;;;;;13.29;78.08;100140.94;5017044;28;20045;-53
2021/10/30 10:37:17;;;;;;;23.73;16.80;;;;;;;15.42;69.64;100136.97;5007376;28;20045;-51
2021/10/30 10:39:57;;;;;;;20.40;16.45;;;;;;;17.49;57.53;100137.25;5017004;28;20048;-49
2021/10/30 10:42:40;;;;;;;22.05;17.38;;;;;;;17.47;59.73;100133.81;5013861;28;20045;-49
2021/10/30 10:45:16;;;;;;;17.65;15.77;;;;;;;20.32;49.30;100139.34;5006065;28;20405;-48
2021/10/30 10:47:44;;;;;;;20.42;16.33;;;;;;;19.24;51.62;100135.53;5005942;28;20463;-53
2021/10/30 10:50:16;;;;;;;19.10;16.67;;;;;;;19.32;49.41;100141.44;5020088;28;20041;-53
2021/10/30 10:53:05;;;;;;;18.52;16.63;;;;;;;23.91;38.06;100137.19;5023313;28;20041;-52
2021/10/30 10:55:36;;;;;;;17.33;15.43;;;;;;;22.73;39.92;100129.13;5005693;28;20915;-49
2021/10/30 10:58:07;;;;;;;20.65;17.52;;;;;;;22.81;38.61;100126.28;5005844;28;20121;-52
2021/10/30 11:00:34;;;;;;;18.58;16.70;;;;;;;24.42;34.18;100142.19;5005918;28;20045;-54
2021/10/30 11:03:01;;;;;;;19.75;17.50;;;;;;;27.14;29.71;100142.88;5010887;28;20095;-54
2021/10/30 11:05:31;;;;;;;18.35;15.32;;;;;;;26.26;30.90;100139.38;5011061;28;20050;-50
2021/10/30 11:07:56;;;;;;;19.80;17.00;;;;;;;24.05;33.90;100129.66;5006061;28;20391;-53
2021/10/30 11:10:27;;;;;;;20.98;17.92;;;;;;;22.53;36.35;100121.97;5008231;28;20099;-49